Time;durP1;ratioP1;P1;durP2;ratioP2;P2;SDS_P1;SDS_P2;PMS_P1;PMS_P2;Temp;Humidity;BMP_temperature;BMP_pressure;BME280_temperature;BME280_humidity;BME280_pressure;Samples;Min_cycle;Max_cycle;Signal;HPM_P1;HPM_P2
2023/03/13 00:01:33;;;;;;;;;;;;;;;;;;5047978;28;19928;-62
2023/03/13 00:03:59;;;;;;;;;;;;;;;;;;5065025;28;19928;-62
2023/03/13 00:06:25;;;;;;;;;;;;;;;;;;5057918;28;19966;-62
2023/03/13 00:08:51;;;;;;;;;;;;;;;;;;5067455;28;19966;-62
2023/03/13 00:11:17;;;;;;;;;;;;;;;;;;5069436;28;19955;-61
2023/03/13 00:13:43;;;;;;;;;;;;;;;;;;5068415;28;19925;-62
2023/03/13 00:16:08;;;;;;;;;;;;;;;;;;5062048;28;19924;-62
2023/03/13 00:18:34;;;;;;;;;;;;;;;;;;5063331;28;19925;-62
2023/03/13 00:21:00;;;;;;;;;;;;;;;;;;5067200;28;19932;-62
2023/03/13 00:23:26;;;;;;;;;;;;;;;;;;5051929;28;19924;-62
2023/03/13 00:25:52;;;;;;;;;;;;;;;;;;5065016;28;20382;-62
2023/03/13 00:28:18;;;;;;;;;;;;;;;;;;5069181;28;19920;-62
2023/03/13 00:30:44;;;;;;;;;;;;;;;;;;5064992;28;20285;-62
2023/03/13 00:33:10;;;;;;;;;;;;;;;;;;5062270;28;19928;-62
2023/03/13 00:35:35;;;;;;;;;;;;;;;;;;5064128;28;19920;-62
2023/03/13 00:38:01;;;;;;;;;;;;;;;;;;5067982;28;20400;-62
2023/03/13 00:40:27;;;;;;;;;;;;;;;;;;5061280;28;20002;-62
2023/03/13 00:42:53;;;;;;;;;;;;;;;;;;5047848;28;19924;-62
2023/03/13 00:45:19;;;;;;;;;;;;;;;;;;5061941;28;19921;-62
2023/03/13 00:47:45;;;;;;;;;;;;;;;;;;5053515;28;19935;-62
2023/03/13 00:50:11;;;;;;;;;;;;;;;;;;5069878;28;20354;-62
2023/03/13 00:52:37;;;;;;;;;;;;;;;;;;5056835;28;19931;-62
2023/03/13 00:55:03;;;;;;;;;;;;;;;;;;5063525;28;19920;-62
2023/03/13 00:57:29;;;;;;;;;;;;;;;;;;5054891;28;20604;-62
2023/03/13 00:59:54;;;;;;;;;;;;;;;;;;5037668;28;19924;-62
2023/03/13 01:02:20;;;;;;;;;;;;;;;;;;5051979;28;20385;-62
2023/03/13 01:04:46;;;;;;;;;;;;;;;;;;5050109;28;19940;-62
2023/03/13 01:07:12;;;;;;;;;;;;;;;;;;5052558;28;19959;-62
2023/03/13 01:09:38;;;;;;;;;;;;;;;;;;5061689;28;19966;-62
2023/03/13 01:12:04;;;;;;;;;;;;;;;;;;5031009;28;19924;-62
2023/03/13 01:14:30;;;;;;;;;;;;;;;;;;5053470;28;19936;-62
2023/03/13 01:16:56;;;;;;;;;;;;;;;;;;5050065;28;20424;-62
2023/03/13 01:19:22;;;;;;;;;;;;;;;;;;5066771;28;19920;-62
2023/03/13 01:21:48;;;;;;;;;;;;;;;;;;5069902;28;20286;-62
2023/03/13 01:24:14;;;;;;;;;;;;;;;;;;5050895;28;19920;-62
2023/03/13 01:26:39;;;;;;;;;;;;;;;;;;5048103;28;19920;-62
2023/03/13 01:29:05;;;;;;;;;;;;;;;;;;5072647;28;19928;-62
2023/03/13 01:31:31;;;;;;;;;;;;;;;;;;5049002;28;20011;-62
2023/03/13 01:33:57;;;;;;;;;;;;;;;;;;5071677;28;19943;-62
2023/03/13 01:36:23;;;;;;;;;;;;;;;;;;5074188;28;20542;-62
2023/03/13 01:38:49;;;;;;;;;;;;;;;;;;5071264;28;19925;-62
2023/03/13 01:41:15;;;;;;;;;;;;;;;;;;5053703;28;19956;-62
2023/03/13 01:43:42;;;;;;;;;;;;;;;;;;5045409;28;19920;-62
2023/03/13 01:46:08;;;;;;;;;;;;;;;;;;5070572;28;19969;-62
2023/03/13 01:48:34;;;;;;;;;;;;;;;;;;5071474;28;19970;-62
2023/03/13 01:51:00;;;;;;;;;;;;;;;;;;5068794;28;20343;-62
2023/03/13 01:53:26;;;;;;;;;;;;;;;;;;5058001;28;19966;-62
2023/03/13 01:55:52;;;;;;;;;;;;;;;;;;5066214;28;19990;-62
2023/03/13 01:58:18;;;;;;;;;;;;;;;;;;5072293;28;20534;-62
2023/03/13 02:00:44;;;;;;;;;;;;;;;;;;5066596;28;19932;-62
2023/03/13 02:03:10;;;;;;;;;;;;;;;;;;5063515;28;20283;-62
2023/03/13 02:05:35;;;;;;;;;;;;;;;;;;5068308;28;20009;-62
2023/03/13 02:08:01;;;;;;;;;;;;;;;;;;5071103;28;19963;-62
2023/03/13 02:10:27;;;;;;;;;;;;;;;;;;5070755;28;19925;-62
2023/03/13 02:12:53;;;;;;;;;;;;;;;;;;5070048;28;19927;-62
2023/03/13 02:15:19;;;;;;;;;;;;;;;;;;5071959;28;20325;-62
2023/03/13 02:17:45;;;;;;;;;;;;;;;;;;5066128;28;19924;-61
2023/03/13 02:20:11;;;;;;;;;;;;;;;;;;5052521;28;19928;-62
2023/03/13 02:22:37;;;;;;;;;;;;;;;;;;5053996;28;19928;-62
2023/03/13 02:25:03;;;;;;;;;;;;;;;;;;5068264;28;19947;-62
2023/03/13 02:27:28;;;;;;;;;;;;;;;;;;5062078;28;19925;-62
2023/03/13 02:29:54;;;;;;;;;;;;;;;;;;5070555;28;19973;-62
2023/03/13 02:32:20;;;;;;;;;;;;;;;;;;5067769;28;19967;-62
2023/03/13 02:34:46;;;;;;;;;;;;;;;;;;5065490;28;19924;-62
2023/03/13 02:37:13;;;;;;;;;;;;;;;;;;5071697;28;20369;-61
2023/03/13 02:39:39;;;;;;;;;;;;;;;;;;5071582;28;20428;-62
2023/03/13 02:42:04;;;;;;;;;;;;;;;;;;5071150;28;19963;-62
2023/03/13 02:44:30;;;;;;;;;;;;;;;;;;5069029;28;20532;-62
2023/03/13 02:46:56;;;;;;;;;;;;;;;;;;5070411;28;19920;-61
2023/03/13 02:49:22;;;;;;;;;;;;;;;;;;5070929;28;19920;-62
2023/03/13 02:51:48;;;;;;;;;;;;;;;;;;5067772;28;20556;-62
2023/03/13 02:54:14;;;;;;;;;;;;;;;;;;5070053;28;19928;-61
2023/03/13 02:56:40;;;;;;;;;;;;;;;;;;5061914;28;19921;-61
2023/03/13 02:59:06;;;;;;;;;;;;;;;;;;5071121;28;19928;-62
2023/03/13 03:01:32;;;;;;;;;;;;;;;;;;5071961;28;19982;-61
2023/03/13 03:03:58;;;;;;;;;;;;;;;;;;5071395;28;19973;-61
2023/03/13 03:06:24;;;;;;;;;;;;;;;;;;5069415;28;20410;-61
2023/03/13 03:08:50;;;;;;;;;;;;;;;;;;5037564;28;19921;-61
2023/03/13 03:11:16;;;;;;;;;;;;;;;;;;5071567;28;20278;-62
2023/03/13 03:13:42;;;;;;;;;;;;;;;;;;5070273;28;19920;-62
2023/03/13 03:16:07;;;;;;;;;;;;;;;;;;5070521;28;19947;-62
2023/03/13 03:18:33;;;;;;;;;;;;;;;;;;5071639;28;20007;-62
2023/03/13 03:20:59;;;;;;;;;;;;;;;;;;5070782;28;20017;-62
2023/03/13 03:23:25;;;;;;;;;;;;;;;;;;5069095;28;19975;-62
2023/03/13 03:25:51;;;;;;;;;;;;;;;;;;5066180;28;20338;-62
2023/03/13 03:28:17;;;;;;;;;;;;;;;;;;5069916;28;19924;-62
2023/03/13 03:30:43;;;;;;;;;;;;;;;;;;5062030;28;20361;-62
2023/03/13 03:33:09;;;;;;;;;;;;;;;;;;5065639;28;19966;-62
2023/03/13 03:35:37;;;;;;;;;;;;;;;;;;5066406;28;20293;-62
2023/03/13 03:38:03;;;;;;;;;;;;;;;;;;5070008;28;20015;-62
2023/03/13 03:40:29;;;;;;;;;;;;;;;;;;5053548;28;20007;-62
2023/03/13 03:42:55;;;;;;;;;;;;;;;;;;5064457;28;19925;-62
2023/03/13 03:45:21;;;;;;;;;;;;;;;;;;5053056;28;20332;-62
2023/03/13 03:47:46;;;;;;;;;;;;;;;;;;5070237;28;19946;-62
2023/03/13 03:50:12;;;;;;;;;;;;;;;;;;5049977;28;19935;-62
2023/03/13 03:52:38;;;;;;;;;;;;;;;;;;5068131;28;19932;-62
2023/03/13 03:55:04;;;;;;;;;;;;;;;;;;5059561;28;19931;-62
2023/03/13 03:57:30;;;;;;;;;;;;;;;;;;5070937;28;19939;-62
2023/03/13 03:59:56;;;;;;;;;;;;;;;;;;5053413;28;19956;-62
2023/03/13 04:02:22;;;;;;;;;;;;;;;;;;5065427;28;19933;-62
2023/03/13 04:04:48;;;;;;;;;;;;;;;;;;5049356;28;19978;-62
2023/03/13 04:07:14;;;;;;;;;;;;;;;;;;5051897;28;19924;-62
2023/03/13 04:09:39;;;;;;;;;;;;;;;;;;5069067;28;19927;-62
2023/03/13 04:12:05;;;;;;;;;;;;;;;;;;5067954;28;19920;-62
2023/03/13 04:14:31;;;;;;;;;;;;;;;;;;5067680;28;19974;-62
2023/03/13 04:16:57;;;;;;;;;;;;;;;;;;5048626;28;20568;-62
2023/03/13 04:19:23;;;;;;;;;;;;;;;;;;5066206;28;19927;-62
2023/03/13 04:21:49;;;;;;;;;;;;;;;;;;5028132;28;19924;-62
2023/03/13 04:24:15;;;;;;;;;;;;;;;;;;5068455;28;19925;-62
2023/03/13 04:26:41;;;;;;;;;;;;;;;;;;5050285;28;19960;-62
2023/03/13 04:29:07;;;;;;;;;;;;;;;;;;5067352;28;19928;-62
2023/03/13 04:31:33;;;;;;;;;;;;;;;;;;5062664;28;19925;-62
2023/03/13 04:33:58;;;;;;;;;;;;;;;;;;5064135;28;20302;-62
2023/03/13 04:36:24;;;;;;;;;;;;;;;;;;5067455;28;20290;-62
2023/03/13 04:38:50;;;;;;;;;;;;;;;;;;5069251;28;20007;-62
2023/03/13 04:41:16;;;;;;;;;;;;;;;;;;5069671;28;20032;-62
2023/03/13 04:43:42;;;;;;;;;;;;;;;;;;5068752;28;20354;-62
2023/03/13 04:46:08;;;;;;;;;;;;;;;;;;5065023;28;20006;-62
2023/03/13 04:48:34;;;;;;;;;;;;;;;;;;5062613;28;20270;-62
2023/03/13 04:51:00;;;;;;;;;;;;;;;;;;5060281;28;19927;-62
2023/03/13 04:53:25;;;;;;;;;;;;;;;;;;5072502;28;19924;-62
2023/03/13 04:55:51;;;;;;;;;;;;;;;;;;5070558;28;19920;-62
2023/03/13 04:58:17;;;;;;;;;;;;;;;;;;5077521;28;19998;-62
2023/03/13 05:00:43;;;;;;;;;;;;;;;;;;5039094;28;20297;-62
2023/03/13 05:03:09;;;;;;;;;;;;;;;;;;5069099;28;19938;-62
2023/03/13 05:05:35;;;;;;;;;;;;;;;;;;5054816;28;19920;-62
2023/03/13 05:08:01;;;;;;;;;;;;;;;;;;5074080;28;19920;-62
2023/03/13 05:10:27;;;;;;;;;;;;;;;;;;5074092;28;19920;-62
2023/03/13 05:12:53;;;;;;;;;;;;;;;;;;5071179;28;19924;-62
2023/03/13 05:15:18;;;;;;;;;;;;;;;;;;5052482;28;20869;-62
2023/03/13 05:17:44;;;;;;;;;;;;;;;;;;5068322;28;19921;-62
2023/03/13 05:20:10;;;;;;;;;;;;;;;;;;5068305;28;19921;-62
2023/03/13 05:22:36;;;;;;;;;;;;;;;;;;5073109;28;19931;-62
2023/03/13 05:25:02;;;;;;;;;;;;;;;;;;5048106;28;19950;-62
2023/03/13 05:27:28;;;;;;;;;;;;;;;;;;5072111;28;19920;-62
2023/03/13 05:29:54;;;;;;;;;;;;;;;;;;5054405;28;20471;-62
2023/03/13 05:32:20;;;;;;;;;;;;;;;;;;5073013;28;19931;-62
2023/03/13 05:34:46;;;;;;;;;;;;;;;;;;5072042;28;19921;-62
2023/03/13 05:37:12;;;;;;;;;;;;;;;;;;5068976;28;19928;-62
2023/03/13 05:39:38;;;;;;;;;;;;;;;;;;5069683;28;19985;-62
2023/03/13 05:42:04;;;;;;;;;;;;;;;;;;5071498;28;20329;-62
2023/03/13 05:44:29;;;;;;;;;;;;;;;;;;5072783;28;19926;-62
2023/03/13 05:46:55;;;;;;;;;;;;;;;;;;5073304;28;19921;-62
2023/03/13 05:49:21;;;;;;;;;;;;;;;;;;5063398;28;19920;-62
2023/03/13 05:51:47;;;;;;;;;;;;;;;;;;5065877;28;20043;-62
2023/03/13 05:54:13;;;;;;;;;;;;;;;;;;5073213;28;19921;-62
2023/03/13 05:56:39;;;;;;;;;;;;;;;;;;5071845;28;19921;-62
2023/03/13 05:59:05;;;;;;;;;;;;;;;;;;5072322;28;19920;-62
2023/03/13 06:01:31;;;;;;;;;;;;;;;;;;5072096;28;20014;-62
2023/03/13 06:03:57;;;;;;;;;;;;;;;;;;5054396;28;19925;-62
2023/03/13 06:06:23;;;;;;;;;;;;;;;;;;5071798;28;19927;-62
2023/03/13 06:08:48;;;;;;;;;;;;;;;;;;5073698;28;19927;-62
2023/03/13 06:11:14;;;;;;;;;;;;;;;;;;5071146;28;19924;-62
2023/03/13 06:13:40;;;;;;;;;;;;;;;;;;5070049;28;20011;-62
2023/03/13 06:16:06;;;;;;;;;;;;;;;;;;5069095;28;19946;-62
2023/03/13 06:18:32;;;;;;;;;;;;;;;;;;5070444;28;20011;-62
2023/03/13 06:20:58;;;;;;;;;;;;;;;;;;5061366;28;19938;-62
2023/03/13 06:23:24;;;;;;;;;;;;;;;;;;5072516;28;19924;-62
2023/03/13 06:25:50;;;;;;;;;;;;;;;;;;5071798;28;19973;-62
2023/03/13 06:28:16;;;;;;;;;;;;;;;;;;5072533;28;19973;-62
2023/03/13 06:30:42;;;;;;;;;;;;;;;;;;5071056;28;19931;-62
2023/03/13 06:33:07;;;;;;;;;;;;;;;;;;5071153;28;19928;-62
2023/03/13 06:35:33;;;;;;;;;;;;;;;;;;5065089;28;20015;-63
2023/03/13 06:37:59;;;;;;;;;;;;;;;;;;5070305;28;19920;-63
2023/03/13 06:40:25;;;;;;;;;;;;;;;;;;5069305;28;19932;-63
2023/03/13 06:42:51;;;;;;;;;;;;;;;;;;5070980;28;19931;-62
2023/03/13 06:45:17;;;;;;;;;;;;;;;;;;5049823;28;20647;-62
2023/03/13 06:47:43;;;;;;;;;;;;;;;;;;5064166;28;19924;-62
2023/03/13 06:50:09;;;;;;;;;;;;;;;;;;5062277;28;19925;-62
2023/03/13 06:52:36;;;;;;;;;;;;;;;;;;5066523;28;20409;-62
2023/03/13 06:55:02;;;;;;;;;;;;;;;;;;5071448;28;19920;-62
2023/03/13 06:57:28;;;;;;;;;;;;;;;;;;5069053;28;19963;-63
2023/03/13 06:59:54;;;;;;;;;;;;;;;;;;5073275;28;19964;-63
2023/03/13 07:02:20;;;;;;;;;;;;;;;;;;5061528;28;20343;-63
2023/03/13 07:04:46;;;;;;;;;;;;;;;;;;5066081;28;19928;-63
2023/03/13 07:07:12;;;;;;;;;;;;;;;;;;5070018;28;19920;-63
2023/03/13 07:09:38;;;;;;;;;;;;;;;;;;5071292;28;19931;-63
2023/03/13 07:12:04;;;;;;;;;;;;;;;;;;5071190;28;19920;-63
2023/03/13 07:14:30;;;;;;;;;;;;;;;;;;5065519;28;20837;-63
2023/03/13 07:16:56;;;;;;;;;;;;;;;;;;5061814;28;19982;-62
2023/03/13 07:19:22;;;;;;;;;;;;;;;;;;5068799;28;20386;-62
2023/03/13 07:21:48;;;;;;;;;;;;;;;;;;5051225;28;19928;-62
2023/03/13 07:24:14;;;;;;;;;;;;;;;;;;5056713;28;19924;-62
2023/03/13 07:26:40;;;;;;;;;;;;;;;;;;5060435;28;20588;-63
2023/03/13 07:29:06;;;;;;;;;;;;;;;;;;5061979;28;20515;-62
2023/03/13 07:31:32;;;;;;;;;;;;;;;;;;5068201;28;19940;-62
2023/03/13 07:33:58;;;;;;;;;;;;;;;;;;5067100;28;20022;-63
2023/03/13 07:36:24;;;;;;;;;;;;;;;;;;5065903;28;19982;-63
2023/03/13 07:38:50;;;;;;;;;;;;;;;;;;5060456;28;19925;-63
2023/03/13 07:41:17;;;;;;;;;;;;;;;;;;5052223;28;19935;-63
2023/03/13 07:43:43;;;;;;;;;;;;;;;;;;5052710;28;19928;-63
2023/03/13 07:46:09;;;;;;;;;;;;;;;;;;5056053;28;20366;-63
2023/03/13 07:48:34;;;;;;;;;;;;;;;;;;5071957;28;19924;-63
2023/03/13 07:51:00;;;;;;;;;;;;;;;;;;5054173;28;20354;-63
2023/03/13 07:53:26;;;;;;;;;;;;;;;;;;5072099;28;19928;-63
2023/03/13 07:55:52;;;;;;;;;;;;;;;;;;5071077;28;19925;-63
2023/03/13 07:58:18;;;;;;;;;;;;;;;;;;5072116;28;19924;-63
2023/03/13 08:00:44;;;;;;;;;;;;;;;;;;5071872;28;19970;-63
2023/03/13 08:03:10;;;;;;;;;;;;;;;;;;5067172;28;19932;-63
2023/03/13 08:05:36;;;;;;;;;;;;;;;;;;5071780;28;19932;-63
2023/03/13 08:08:02;;;;;;;;;;;;;;;;;;5054890;28;19924;-63
2023/03/13 08:10:28;;;;;;;;;;;;;;;;;;5060624;28;19968;-63
2023/03/13 08:12:53;;;;;;;;;;;;;;;;;;5070774;28;19944;-63
2023/03/13 08:15:24;;;;;;;;;;;;;;;;;;5054018;28;19924;-63
2023/03/13 08:17:50;;;;;;;;;;;;;;;;;;5079240;22;19925;-63
2023/03/13 08:20:17;;;;;;;;;;;;;;;;;;5014449;28;19929;-63
2023/03/13 08:22:45;;;;;;;;;;;;;;;;;;5012232;28;20027;-63
2023/03/13 08:25:11;;;;;;;;;;;;;;;;;;4994359;28;20482;-62
2023/03/13 08:27:37;;;;;;;;;;;;;;;;;;5020634;28;20012;-62
2023/03/13 08:30:02;;;;;;;;;;;;;;;;;;5030648;28;19931;-63
2023/03/13 08:32:28;;;;;;;;;;;;;;;;;;4993691;28;20889;-62
2023/03/13 08:34:54;;;;;;;;;;;;;;;;;;5016300;28;19929;-62
2023/03/13 08:37:20;;;;;;;;;;;;;;;;;;5028934;28;19921;-63
2023/03/13 08:39:47;;;;;;;;;;;;;;;;;;5022700;28;19944;-63
2023/03/13 08:42:13;;;;;;;;;;;;;;;;;;5034668;28;19921;-62
2023/03/13 08:44:39;;;;;;;;;;;;;;;;;;5024184;28;20646;-63
2023/03/13 08:47:05;;;;;;;;;;;;;;;;;;5014451;28;19952;-62
2023/03/13 08:49:31;;;;;;;;;;;;;;;;;;5014758;28;19921;-62
2023/03/13 08:51:57;;;;;;;;;;;;;;;;;;5015017;28;19921;-63
2023/03/13 08:54:23;;;;;;;;;;;;;;;;;;4998354;28;19936;-63
2023/03/13 08:56:49;;;;;;;;;;;;;;;;;;5028999;28;20587;-63
2023/03/13 08:59:14;;;;;;;;;;;;;;;;;;5035135;28;19921;-62
2023/03/13 09:01:40;;;;;;;;;;;;;;;;;;5031573;28;19971;-63
2023/03/13 09:04:06;;;;;;;;;;;;;;;;;;5034144;28;19925;-62
2023/03/13 09:06:32;;;;;;;;;;;;;;;;;;5035010;28;19960;-63
2023/03/13 09:08:58;;;;;;;;;;;;;;;;;;5035280;28;20341;-63
2023/03/13 09:11:24;;;;;;;;;;;;;;;;;;5034113;28;20624;-62
2023/03/13 09:13:50;;;;;;;;;;;;;;;;;;5035089;28;19921;-62
2023/03/13 09:16:16;;;;;;;;;;;;;;;;;;5034963;28;19932;-63
2023/03/13 09:18:42;;;;;;;;;;;;;;;;;;5024280;28;20433;-63
2023/03/13 09:21:08;;;;;;;;;;;;;;;;;;5003169;28;19990;-62
2023/03/13 09:23:33;;;;;;;;;;;;;;;;;;5021529;28;19925;-62
2023/03/13 09:25:59;;;;;;;;;;;;;;;;;;5026218;28;20008;-63
2023/03/13 09:28:25;;;;;;;;;;;;;;;;;;5016007;28;19925;-63
2023/03/13 09:30:51;;;;;;;;;;;;;;;;;;5026424;28;19933;-62
2023/03/13 09:33:17;;;;;;;;;;;;;;;;;;5014562;28;20264;-63
2023/03/13 09:35:46;;;;;;;;;;;;;;;;;;5025133;28;19925;-63
2023/03/13 09:38:11;;;;;;;;;;;;;;;;;;5033944;28;19932;-63
2023/03/13 09:40:38;;;;;;;;;;;;;;;;;;5020802;28;19925;-63
2023/03/13 09:43:03;;;;;;;;;;;;;;;;;;5014806;28;19926;-63
2023/03/13 09:45:31;;;;;;;;;;;;;;;;;;5017151;28;20259;-62
2023/03/13 09:47:57;;;;;;;;;;;;;;;;;;5020096;28;19928;-61
2023/03/13 09:50:23;;;;;;;;;;;;;;;;;;5005184;28;19929;-62
2023/03/13 09:52:49;;;;;;;;;;;;;;;;;;5016748;28;20271;-62
2023/03/13 09:55:15;;;;;;;;;;;;;;;;;;5017282;28;19925;-61
2023/03/13 09:57:40;;;;;;;;;;;;;;;;;;5021646;28;19922;-62
2023/03/13 10:00:11;;;;;;;;;;;;;;;;;;5016859;28;20002;-62
2023/03/13 10:02:37;;;;;;;;;;;;;;;;;;5017992;28;19935;-62
2023/03/13 10:05:03;;;;;;;;;;;;;;;;;;5026707;28;20291;-62
2023/03/13 10:07:29;;;;;;;;;;;;;;;;;;5017419;28;20296;-62
2023/03/13 10:09:55;;;;;;;;;;;;;;;;;;5004372;28;20401;-62
2023/03/13 10:12:21;;;;;;;;;;;;;;;;;;4998110;28;19977;-62
2023/03/13 10:14:47;;;;;;;;;;;;;;;;;;5032034;28;19925;-62
2023/03/13 10:17:13;;;;;;;;;;;;;;;;;;4999975;28;20442;-62
2023/03/13 10:19:41;;;;;;;;;;;;;;;;;;5013477;28;19930;-62
2023/03/13 10:22:06;;;;;;;;;;;;;;;;;;5012631;28;19930;-62
2023/03/13 10:24:32;;;;;;;;;;;;;;;;;;5023977;28;19927;-62
2023/03/13 10:26:58;;;;;;;;;;;;;;;;;;5016690;28;19929;-62
2023/03/13 10:29:24;;;;;;;;;;;;;;;;;;5029566;28;19932;-62
2023/03/13 10:31:50;;;;;;;;;;;;;;;;;;4988237;28;19922;-62
2023/03/13 10:34:16;;;;;;;;;;;;;;;;;;4990306;28;20394;-62
2023/03/13 10:36:42;;;;;;;;;;;;;;;;;;5018772;28;20004;-62
2023/03/13 10:39:08;;;;;;;;;;;;;;;;;;5025274;28;19964;-63
2023/03/13 10:41:34;;;;;;;;;;;;;;;;;;5006129;28;20349;-62
2023/03/13 10:44:00;;;;;;;;;;;;;;;;;;5024616;28;19925;-63
2023/03/13 10:46:26;;;;;;;;;;;;;;;;;;5024583;28;19948;-63
2023/03/13 10:48:52;;;;;;;;;;;;;;;;;;5020553;28;20348;-62
2023/03/13 10:51:17;;;;;;;;;;;;;;;;;;5021220;28;19921;-62
2023/03/13 10:53:43;;;;;;;;;;;;;;;;;;5009804;28;19928;-63
2023/03/13 10:56:09;;;;;;;;;;;;;;;;;;5031318;28;20288;-63
2023/03/13 10:58:35;;;;;;;;;;;;;;;;;;5027738;28;19925;-62
2023/03/13 11:01:01;;;;;;;;;;;;;;;;;;5019108;28;19933;-63
2023/03/13 11:03:27;;;;;;;;;;;;;;;;;;5015055;28;19925;-63
2023/03/13 11:05:55;;;;;;;;;;;;;;;;;;5012465;28;21185;-62
2023/03/13 11:08:21;;;;;;;;;;;;;;;;;;5018157;28;19921;-62
2023/03/13 11:10:47;;;;;;;;;;;;;;;;;;5017084;28;19924;-63
2023/03/13 11:13:12;;;;;;;;;;;;;;;;;;5020603;28;20322;-62
2023/03/13 11:15:38;;;;;;;;;;;;;;;;;;5000053;28;19925;-62
2023/03/13 11:18:04;;;;;;;;;;;;;;;;;;5016677;28;19929;-63
2023/03/13 11:20:30;;;;;;;;;;;;;;;;;;5018381;28;20358;-63
2023/03/13 11:22:56;;;;;;;;;;;;;;;;;;5029609;28;19925;-63
2023/03/13 11:25:22;;;;;;;;;;;;;;;;;;5004466;28;19921;-62
2023/03/13 11:27:48;;;;;;;;;;;;;;;;;;5017019;28;19957;-63
2023/03/13 11:30:14;;;;;;;;;;;;;;;;;;5025750;28;19925;-62
2023/03/13 11:32:40;;;;;;;;;;;;;;;;;;5023388;28;20385;-62
2023/03/13 11:35:06;;;;;;;;;;;;;;;;;;4988758;28;19921;-62
2023/03/13 11:37:33;;;;;;;;;;;;;;;;;;5012884;28;19964;-62
2023/03/13 11:39:59;;;;;;;;;;;;;;;;;;5011759;28;19970;-62
2023/03/13 11:42:25;;;;;;;;;;;;;;;;;;5016075;28;19925;-62
2023/03/13 11:44:50;;;;;;;;;;;;;;;;;;5024403;28;19967;-63
2023/03/13 11:47:16;;;;;;;;;;;;;;;;;;5006312;28;20245;-61
2023/03/13 11:49:42;;;;;;;;;;;;;;;;;;5018407;28;19921;-61
2023/03/13 11:52:08;;;;;;;;;;;;;;;;;;5004475;28;19922;-61
2023/03/13 11:54:34;;;;;;;;;;;;;;;;;;5006296;28;20360;-61
2023/03/13 11:57:00;;;;;;;;;;;;;;;;;;5022208;28;19991;-62
2023/03/13 11:59:26;;;;;;;;;;;;;;;;;;5009061;28;20025;-61
2023/03/13 12:01:52;;;;;;;;;;;;;;;;;;5029285;28;19925;-62
2023/03/13 12:04:18;;;;;;;;;;;;;;;;;;5025647;28;19925;-61
2023/03/13 12:06:44;;;;;;;;;;;;;;;;;;4994628;28;19926;-62
2023/03/13 12:09:11;;;;;;;;;;;;;;;;;;4994663;28;20016;-61
2023/03/13 12:11:37;;;;;;;;;;;;;;;;;;5002024;28;19925;-62
2023/03/13 12:14:03;;;;;;;;;;;;;;;;;;5021362;28;19944;-61
2023/03/13 12:16:29;;;;;;;;;;;;;;;;;;5020682;28;19925;-61
2023/03/13 12:18:55;;;;;;;;;;;;;;;;;;5016926;28;19936;-61
2023/03/13 12:21:21;;;;;;;;;;;;;;;;;;5012804;28;20343;-61
2023/03/13 12:23:47;;;;;;;;;;;;;;;;;;5014350;28;20352;-62
2023/03/13 12:26:12;;;;;;;;;;;;;;;;;;5021487;28;19925;-62
2023/03/13 12:28:38;;;;;;;;;;;;;;;;;;5005757;28;19929;-63
2023/03/13 12:31:04;;;;;;;;;;;;;;;;;;5031771;28;19921;-62
2023/03/13 12:33:30;;;;;;;;;;;;;;;;;;5013848;28;19920;-62
2023/03/13 12:35:56;;;;;;;;;;;;;;;;;;5017367;28;20334;-62
2023/03/13 12:38:22;;;;;;;;;;;;;;;;;;5012190;28;19925;-62
2023/03/13 12:40:48;;;;;;;;;;;;;;;;;;5015806;28;19921;-62
2023/03/13 12:43:14;;;;;;;;;;;;;;;;;;5020924;28;19928;-62
2023/03/13 12:45:40;;;;;;;;;;;;;;;;;;5012938;28;20359;-62
2023/03/13 12:48:06;;;;;;;;;;;;;;;;;;5012292;28;19926;-62
2023/03/13 12:50:32;;;;;;;;;;;;;;;;;;5012132;28;19976;-62
2023/03/13 12:52:58;;;;;;;;;;;;;;;;;;5011245;28;19921;-62
2023/03/13 12:55:23;;;;;;;;;;;;;;;;;;5012049;28;20372;-62
2023/03/13 12:57:49;;;;;;;;;;;;;;;;;;5011826;28;20550;-62
2023/03/13 13:00:15;;;;;;;;;;;;;;;;;;5022286;28;19921;-62
2023/03/13 13:02:41;;;;;;;;;;;;;;;;;;5030522;28;19995;-62
2023/03/13 13:05:07;;;;;;;;;;;;;;;;;;5013467;28;19929;-62
2023/03/13 13:07:33;;;;;;;;;;;;;;;;;;5031797;28;19931;-62
2023/03/13 13:09:59;;;;;;;;;;;;;;;;;;4997785;28;19929;-62
2023/03/13 13:12:25;;;;;;;;;;;;;;;;;;5013725;28;19921;-62
2023/03/13 13:14:51;;;;;;;;;;;;;;;;;;5005215;28;20264;-62
2023/03/13 13:17:17;;;;;;;;;;;;;;;;;;5005879;28;19925;-62
2023/03/13 13:19:42;;;;;;;;;;;;;;;;;;5023839;28;19925;-62
2023/03/13 13:22:08;;;;;;;;;;;;;;;;;;5012731;28;19936;-62
2023/03/13 13:24:34;;;;;;;;;;;;;;;;;;5021137;28;19921;-62
2023/03/13 13:27:00;;;;;;;;;;;;;;;;;;5034618;28;19980;-62
2023/03/13 13:29:26;;;;;;;;;;;;;;;;;;5034584;28;19927;-62
2023/03/13 13:32:00;;;;;;;;;;;;;;;;;;5034104;28;20295;-62
2023/03/13 13:34:26;;;;;;;;;;;;;;;;;;5033938;28;19921;-62
2023/03/13 13:36:52;;;;;;;;;;;;;;;;;;5033125;28;20454;-62
2023/03/13 13:39:17;;;;;;;;;;;;;;;;;;5035289;28;19925;-62
2023/03/13 13:41:43;;;;;;;;;;;;;;;;;;5035311;28;20271;-62
2023/03/13 13:44:09;;;;;;;;;;;;;;;;;;5019802;28;19928;-62
2023/03/13 13:46:35;;;;;;;;;;;;;;;;;;4997454;28;19973;-62
2023/03/13 13:49:01;;;;;;;;;;;;;;;;;;5015676;28;19988;-63
2023/03/13 13:51:27;;;;;;;;;;;;;;;;;;5015223;28;20047;-63
2023/03/13 13:53:54;;;;;;;;;;;;;;;;;;5027210;28;20381;-63
2023/03/13 13:56:20;;;;;;;;;;;;;;;;;;5017237;28;20385;-63
2023/03/13 13:58:46;;;;;;;;;;;;;;;;;;5035057;28;19952;-62
2023/03/13 14:01:12;;;;;;;;;;;;;;;;;;5034534;28;19926;-62
2023/03/13 14:03:40;;;;;;;;;;;;;;;;;;5015660;28;20375;-63
2023/03/13 14:06:06;;;;;;;;;;;;;;;;;;5034608;28;20282;-63
2023/03/13 14:08:32;;;;;;;;;;;;;;;;;;5018346;28;19925;-63
2023/03/13 14:10:58;;;;;;;;;;;;;;;;;;5014976;28;19965;-63
2023/03/13 14:13:24;;;;;;;;;;;;;;;;;;5014668;28;19921;-63
2023/03/13 14:15:51;;;;;;;;;;;;;;;;;;5014420;28;20282;-63
2023/03/13 14:18:17;;;;;;;;;;;;;;;;;;4998306;28;20495;-64
2023/03/13 14:20:43;;;;;;;;;;;;;;;;;;5033741;28;19921;-63
2023/03/13 14:23:09;;;;;;;;;;;;;;;;;;5016196;28;19933;-62
2023/03/13 14:25:35;;;;;;;;;;;;;;;;;;5017095;28;20371;-62
2023/03/13 14:28:01;;;;;;;;;;;;;;;;;;4996180;28;20532;-63
2023/03/13 14:30:27;;;;;;;;;;;;;;;;;;5026783;28;20778;-63
2023/03/13 14:32:53;;;;;;;;;;;;;;;;;;5033215;28;20057;-63
2023/03/13 14:35:21;;;;;;;;;;;;;;;;;;5034006;28;19925;-63
2023/03/13 14:37:47;;;;;;;;;;;;;;;;;;5033997;28;20009;-63
2023/03/13 14:40:13;;;;;;;;;;;;;;;;;;5033752;28;19968;-63
2023/03/13 14:42:38;;;;;;;;;;;;;;;;;;5015270;28;19936;-63
2023/03/13 14:45:04;;;;;;;;;;;;;;;;;;5003191;28;19924;-63
2023/03/13 14:47:30;;;;;;;;;;;;;;;;;;5014412;28;19972;-63
2023/03/13 14:49:57;;;;;;;;;;;;;;;;;;5013888;28;19922;-63
2023/03/13 14:52:23;;;;;;;;;;;;;;;;;;4996238;28;19926;-63
2023/03/13 14:54:49;;;;;;;;;;;;;;;;;;5013772;28;19980;-63
2023/03/13 14:57:15;;;;;;;;;;;;;;;;;;5013600;28;19922;-63
2023/03/13 14:59:42;;;;;;;;;;;;;;;;;;5031972;28;20011;-63
2023/03/13 15:02:07;;;;;;;;;;;;;;;;;;5029460;28;19929;-63
2023/03/13 15:04:33;;;;;;;;;;;;;;;;;;5033064;28;19921;-63
2023/03/13 15:06:59;;;;;;;;;;;;;;;;;;5042882;28;19929;-63
2023/03/13 15:09:25;;;;;;;;;;;;;;;;;;5042928;28;19925;-63
2023/03/13 15:11:52;;;;;;;;;;;;;;;;;;5016576;28;19921;-63
2023/03/13 15:14:18;;;;;;;;;;;;;;;;;;5013450;28;20047;-63
2023/03/13 15:16:44;;;;;;;;;;;;;;;;;;5020547;28;20413;-62
2023/03/13 15:19:10;;;;;;;;;;;;;;;;;;4995623;28;19936;-62
2023/03/13 15:21:36;;;;;;;;;;;;;;;;;;5012855;28;19963;-63
2023/03/13 15:24:02;;;;;;;;;;;;;;;;;;5013384;28;20083;-62
2023/03/13 15:26:28;;;;;;;;;;;;;;;;;;5025087;28;20528;-63
2023/03/13 15:28:54;;;;;;;;;;;;;;;;;;5008631;28;19922;-63
2023/03/13 15:31:20;;;;;;;;;;;;;;;;;;5008422;28;19928;-62
2023/03/13 15:33:46;;;;;;;;;;;;;;;;;;5030783;28;20004;-62
2023/03/13 15:36:11;;;;;;;;;;;;;;;;;;4999983;28;19981;-62
2023/03/13 15:38:37;;;;;;;;;;;;;;;;;;5013027;28;19922;-63
2023/03/13 15:41:03;;;;;;;;;;;;;;;;;;5013175;28;19921;-62
2023/03/13 15:43:29;;;;;;;;;;;;;;;;;;5013805;28;19951;-63
2023/03/13 15:45:55;;;;;;;;;;;;;;;;;;5009904;28;19968;-63
2023/03/13 15:48:21;;;;;;;;;;;;;;;;;;5025828;28;20318;-63
2023/03/13 15:50:47;;;;;;;;;;;;;;;;;;5023278;28;19921;-64
2023/03/13 15:53:13;;;;;;;;;;;;;;;;;;5022427;28;20083;-63
2023/03/13 15:55:39;;;;;;;;;;;;;;;;;;5029555;28;19929;-63
2023/03/13 15:58:05;;;;;;;;;;;;;;;;;;5032039;28;19967;-63
2023/03/13 16:00:31;;;;;;;;;;;;;;;;;;5019776;28;20306;-63
2023/03/13 16:02:58;;;;;;;;;;;;;;;;;;5002504;28;19935;-63
2023/03/13 16:05:24;;;;;;;;;;;;;;;;;;5008971;28;19921;-63
2023/03/13 16:07:50;;;;;;;;;;;;;;;;;;5012819;28;19921;-63
2023/03/13 16:10:16;;;;;;;;;;;;;;;;;;5010439;28;20315;-63
2023/03/13 16:12:42;;;;;;;;;;;;;;;;;;5025935;28;19971;-62
2023/03/13 16:15:08;;;;;;;;;;;;;;;;;;5007295;28;19927;-63
2023/03/13 16:17:33;;;;;;;;;;;;;;;;;;5025410;28;19956;-63
2023/03/13 16:19:59;;;;;;;;;;;;;;;;;;5020317;28;20388;-63
2023/03/13 16:22:25;;;;;;;;;;;;;;;;;;4999374;28;19975;-63
2023/03/13 16:24:51;;;;;;;;;;;;;;;;;;5014963;28;19949;-63
2023/03/13 16:27:17;;;;;;;;;;;;;;;;;;5020819;28;19925;-63
2023/03/13 16:29:43;;;;;;;;;;;;;;;;;;5018891;28;19925;-62
2023/03/13 16:32:09;;;;;;;;;;;;;;;;;;5016433;28;20391;-63
2023/03/13 16:34:35;;;;;;;;;;;;;;;;;;5015517;28;19971;-63
2023/03/13 16:37:01;;;;;;;;;;;;;;;;;;5013825;28;19929;-63